University Heights, Ohio
Current Conditions -  °F | °C
As of 11:45 AM on Tuesday 27 Jan 2015 (Local Time) from KCGF Reporting Station
Light Snow Light Snow  
Wind Chill:   Ceiling: 600
Heat Index: 21°   Visibility: 1.5mi
Dew Point: 16°   Wind: 12mph
Humidity: 80%   Direction: 10°N
Pressure: 30.05"   Gusts: NA
Location:  41.4698°N, 81.5121°W
Report Text: KCGF 271645Z 01010KT 1 1/2SM -SN VV006 M06/M09 A3005
Loading
Personal Weather Stations






























Interactive Weather Map New forecast layout! Learn more

10-Day Weather Forecast

Advertisements
Track Severe Weather on mobile